createdAt,value
2023-05-20T00:00:50.666Z,94603.06
2023-05-20T00:03:18.143Z,94609.72
2023-05-20T00:05:45.174Z,94610.44
2023-05-20T00:08:12.504Z,94600.22
2023-05-20T00:10:40.082Z,94601.16
2023-05-20T00:13:07.838Z,94587.88
2023-05-20T00:15:36.628Z,94587.41
2023-05-20T00:18:04.708Z,94586.56
2023-05-20T00:20:33.169Z,94585.13
2023-05-20T00:23:00.188Z,94578.56
2023-05-20T00:25:27.148Z,94579.34
2023-05-20T00:27:53.998Z,94566.53
2023-05-20T00:30:20.871Z,94566.03
2023-05-20T00:32:48.101Z,94565.69
2023-05-20T00:35:15.166Z,94570.97
2023-05-20T00:37:42.006Z,94576.56
2023-05-20T00:40:15.397Z,94567.69
2023-05-20T00:42:44.040Z,94560.97
2023-05-20T00:45:11.422Z,94564.75
2023-05-20T00:47:39.548Z,94570.03
2023-05-20T00:50:08.054Z,94563.41
2023-05-20T00:52:35.541Z,94568.50
2023-05-20T00:55:02.440Z,94568.97
2023-05-20T00:57:29.630Z,94567.47
2023-05-20T00:59:57.156Z,94568.03
2023-05-20T01:02:24.513Z,94561.81
2023-05-20T01:04:52.228Z,94565.91
2023-05-20T01:07:19.813Z,94557.47
2023-05-20T01:09:46.808Z,94560.47
2023-05-20T01:12:19.001Z,94559.19
2023-05-20T01:15:09.947Z,94552.56
2023-05-20T01:17:41.779Z,94547.63
2023-05-20T01:20:12.787Z,94549.44
2023-05-20T01:22:48.230Z,94543.06
2023-05-20T01:25:15.177Z,94545.53
2023-05-20T01:27:42.290Z,94530.53
2023-05-20T01:30:09.871Z,94535.16
2023-05-20T01:32:44.079Z,94532.53
2023-05-20T01:35:11.698Z,94537.34
2023-05-20T01:37:40.971Z,94534.88
2023-05-20T01:40:12.678Z,94537.72
2023-05-20T01:42:42.097Z,94539.72
2023-05-20T01:45:09.610Z,94533.72
2023-05-20T01:47:36.497Z,94538.16
2023-05-20T01:50:03.705Z,94540.44
2023-05-20T01:52:31.956Z,94538.44
2023-05-20T01:54:58.916Z,94544.69
2023-05-20T01:57:26.186Z,94542.91
2023-05-20T01:59:53.053Z,94553.53
2023-05-20T02:02:19.932Z,94548.00
2023-05-20T02:04:49.110Z,94534.81
2023-05-20T02:07:17.224Z,94541.53
2023-05-20T02:09:44.093Z,94549.91
2023-05-20T02:12:16.526Z,94548.19
2023-05-20T02:14:45.953Z,94539.81
2023-05-20T02:17:16.533Z,94545.06
2023-05-20T02:19:47.445Z,94546.94
2023-05-20T02:22:14.840Z,94534.09
2023-05-20T02:24:43.668Z,94538.06
2023-05-20T02:27:11.007Z,94535.59
2023-05-20T02:29:37.913Z,94538.22
2023-05-20T02:32:05.295Z,94542.00
2023-05-20T02:34:32.752Z,94544.59
2023-05-20T02:36:59.649Z,94534.09
2023-05-20T02:39:26.819Z,94559.22
2023-05-20T02:41:53.660Z,94555.50
2023-05-20T02:44:20.504Z,94544.81
2023-05-20T02:46:48.366Z,94548.44
2023-05-20T02:49:15.222Z,94544.06
2023-05-20T02:51:42.194Z,94542.88
2023-05-20T02:54:09.046Z,94538.59
2023-05-20T02:56:35.930Z,94543.78
2023-05-20T02:59:04.959Z,94538.22
2023-05-20T03:01:34.034Z,94540.34
2023-05-20T03:04:01.458Z,94537.78
2023-05-20T03:06:30.354Z,94539.97
2023-05-20T03:08:57.210Z,94538.59
2023-05-20T03:11:24.099Z,94528.78
2023-05-20T03:13:51.406Z,94518.78
2023-05-20T03:16:19.025Z,94525.06
2023-05-20T03:18:46.539Z,94520.91
2023-05-20T03:21:13.733Z,94523.06
2023-05-20T03:23:40.600Z,94515.97
2023-05-20T03:26:07.446Z,94519.25
2023-05-20T03:28:34.648Z,94510.88
2023-05-20T03:31:02.756Z,94505.78
2023-05-20T03:33:30.282Z,94510.25
2023-05-20T03:35:57.154Z,94508.06
2023-05-20T03:38:23.993Z,94506.88
2023-05-20T03:40:50.871Z,94512.31
2023-05-20T03:43:17.719Z,94517.03
2023-05-20T03:45:44.588Z,94506.59
2023-05-20T03:48:11.494Z,94513.50
2023-05-20T03:50:38.347Z,94517.72
2023-05-20T03:53:05.212Z,94524.59
2023-05-20T03:55:32.661Z,94516.53
2023-05-20T03:57:59.632Z,94514.06
2023-05-20T04:00:26.478Z,94518.69
2023-05-20T04:02:53.443Z,94507.06
2023-05-20T04:05:20.368Z,94511.34
2023-05-20T04:07:47.362Z,94507.06
2023-05-20T04:10:14.232Z,94516.69
2023-05-20T04:12:41.627Z,94511.13
2023-05-20T04:15:09.462Z,94508.16
2023-05-20T04:17:38.578Z,94507.81
2023-05-20T04:20:08.366Z,94507.81
2023-05-20T04:22:35.404Z,94519.00
2023-05-20T04:25:03.877Z,94508.78
2023-05-20T04:27:31.548Z,94511.25
2023-05-20T04:29:58.990Z,94512.13
2023-05-20T04:32:27.064Z,94520.91
2023-05-20T04:34:56.274Z,94527.63
2023-05-20T04:37:23.369Z,94525.16
2023-05-20T04:39:51.263Z,94517.53
2023-05-20T04:42:19.181Z,94512.16
2023-05-20T04:44:46.375Z,94514.72
2023-05-20T04:47:14.107Z,94516.34
2023-05-20T04:49:41.282Z,94501.25
2023-05-20T04:52:08.462Z,94506.25
2023-05-20T04:54:35.373Z,94498.97
2023-05-20T04:57:03.055Z,94493.31
2023-05-20T04:59:29.934Z,94498.28
2023-05-20T05:01:56.902Z,94511.69
2023-05-20T05:04:23.809Z,94511.69
2023-05-20T05:06:50.805Z,94509.06
2023-05-20T05:09:17.808Z,94503.78
2023-05-20T05:11:44.673Z,94495.47
2023-05-20T05:14:11.557Z,94497.03
2023-05-20T05:16:38.396Z,94492.09
2023-05-20T05:19:05.315Z,94486.06
2023-05-20T05:21:32.330Z,94486.34
2023-05-20T05:23:59.219Z,94491.25
2023-05-20T05:26:26.808Z,94492.72
2023-05-20T05:28:55.486Z,94497.06
2023-05-20T05:31:22.448Z,94501.81
2023-05-20T05:33:49.379Z,94491.25
2023-05-20T05:36:17.032Z,94492.16
2023-05-20T05:38:44.647Z,94491.41
2023-05-20T05:41:11.513Z,94493.88
2023-05-20T05:43:38.420Z,94488.19
2023-05-20T05:46:05.456Z,94471.53
2023-05-20T05:48:32.537Z,94481.16
2023-05-20T05:50:59.428Z,94484.25
2023-05-20T05:53:26.295Z,94488.91
2023-05-20T05:55:53.140Z,94490.97
2023-05-20T05:58:20.171Z,94488.72
2023-05-20T06:00:47.117Z,94483.13
2023-05-20T06:03:14.161Z,94487.97
2023-05-20T06:05:41.116Z,94486.16
2023-05-20T06:08:08.328Z,94484.75
2023-05-20T06:10:35.221Z,94468.84
2023-05-20T06:13:02.069Z,94476.56
2023-05-20T06:15:29.008Z,94481.75
2023-05-20T06:17:56.702Z,94481.38
2023-05-20T06:20:23.635Z,94479.28
2023-05-20T06:22:50.618Z,94470.97
2023-05-20T06:25:17.593Z,94470.66
2023-05-20T06:27:44.757Z,94468.69
2023-05-20T06:30:12.458Z,94481.38
2023-05-20T06:32:39.657Z,94474.97
2023-05-20T06:35:07.310Z,94469.94
2023-05-20T06:37:34.312Z,94465.22
2023-05-20T06:40:01.255Z,94467.72
2023-05-20T06:42:28.150Z,94456.66
2023-05-20T06:44:55.003Z,94463.53
2023-05-20T06:47:21.948Z,94469.56
2023-05-20T06:49:48.831Z,94467.16
2023-05-20T06:52:15.767Z,94486.34
2023-05-20T06:54:43.125Z,94474.34
2023-05-20T06:57:10.811Z,94475.84
2023-05-20T06:59:37.971Z,94475.66
2023-05-20T07:02:05.198Z,94484.97
2023-05-20T07:04:32.121Z,94486.78
2023-05-20T07:06:59.048Z,94471.44
2023-05-20T07:09:25.957Z,94463.25
2023-05-20T07:11:52.961Z,94460.25
2023-05-20T07:14:19.904Z,94456.50
2023-05-20T07:16:46.848Z,94447.81
2023-05-20T07:19:13.823Z,94452.91
2023-05-20T07:21:41.380Z,94455.44
2023-05-20T07:24:08.333Z,94446.38
2023-05-20T07:26:36.670Z,94462.09
2023-05-20T07:29:05.198Z,94463.34
2023-05-20T07:31:32.187Z,94464.56
2023-05-20T07:33:59.314Z,94461.56
2023-05-20T07:36:29.803Z,94473.28
2023-05-20T07:39:59.169Z,94477.31
2023-05-20T07:42:26.011Z,94464.88
2023-05-20T07:44:52.860Z,94470.03
2023-05-20T07:47:19.774Z,94472.22
2023-05-20T07:49:47.083Z,94467.75
2023-05-20T07:52:13.945Z,94454.16
2023-05-20T07:54:41.937Z,94474.38
2023-05-20T07:57:08.934Z,94461.50
2023-05-20T07:59:35.797Z,94458.72
2023-05-20T08:02:02.706Z,94457.88
2023-05-20T08:04:29.640Z,94453.56
2023-05-20T08:06:56.732Z,94443.06
2023-05-20T08:09:23.573Z,94453.28
2023-05-20T08:11:50.959Z,94456.06
2023-05-20T08:14:17.916Z,94453.09
2023-05-20T08:16:45.024Z,94449.63
2023-05-20T08:19:12.026Z,94456.91
2023-05-20T08:21:39.394Z,94456.72
2023-05-20T08:24:06.716Z,94462.28
2023-05-20T08:26:33.705Z,94466.97
2023-05-20T08:29:00.622Z,94462.53
2023-05-20T08:31:27.503Z,94459.75
2023-05-20T08:33:54.435Z,94452.88
2023-05-20T08:36:21.285Z,94447.41
2023-05-20T08:38:49.007Z,94458.25
2023-05-20T08:41:16.207Z,94459.63
2023-05-20T08:43:43.340Z,94462.44
2023-05-20T08:46:11.773Z,94456.97
2023-05-20T08:48:38.826Z,94457.34
2023-05-20T08:51:09.775Z,94463.31
2023-05-20T08:53:36.809Z,94463.31
2023-05-20T08:56:04.034Z,94457.44
2023-05-20T08:58:31.553Z,94467.25
2023-05-20T09:00:59.105Z,94465.66
2023-05-20T09:03:26.073Z,94466.84
2023-05-20T09:06:05.873Z,94461.78
2023-05-20T09:08:34.475Z,94462.00
2023-05-20T09:11:01.607Z,94453.44
2023-05-20T09:13:32.881Z,94447.31
2023-05-20T09:16:02.251Z,94451.19
2023-05-20T09:18:30.264Z,94460.75
2023-05-20T09:20:57.873Z,94456.84
2023-05-20T09:23:30.908Z,94448.50
2023-05-20T09:26:01.169Z,94451.16
2023-05-20T09:28:28.016Z,94447.31
2023-05-20T09:31:01.729Z,94456.47
2023-05-20T09:33:32.319Z,94442.72
2023-05-20T09:36:08.199Z,94460.56
2023-05-20T09:38:39.923Z,94453.03
2023-05-20T09:41:12.200Z,94453.44
2023-05-20T09:43:41.058Z,94457.69
2023-05-20T09:46:08.738Z,94459.69
2023-05-20T09:48:39.396Z,94445.94
2023-05-20T09:51:08.180Z,94454.88
2023-05-20T09:53:36.279Z,94445.97
2023-05-20T09:56:03.552Z,94440.03
2023-05-20T09:58:31.305Z,94431.72
2023-05-20T10:00:58.269Z,94429.22
2023-05-20T10:03:28.416Z,94416.06
2023-05-20T10:06:27.471Z,94415.72
2023-05-20T10:09:15.174Z,94425.13
2023-05-20T10:12:23.766Z,94424.72
2023-05-20T10:15:25.232Z,94425.19
2023-05-20T10:18:16.374Z,94419.97
2023-05-20T10:20:49.909Z,94410.00
2023-05-20T10:23:24.698Z,94426.06
2023-05-20T10:25:54.045Z,94423.72
2023-05-20T10:28:39.048Z,94421.13
2023-05-20T10:31:25.846Z,94415.72
2023-05-20T10:33:54.406Z,94417.38
2023-05-20T10:36:31.966Z,94411.47
2023-05-20T10:39:00.166Z,94405.06
2023-05-20T10:41:31.437Z,94417.38
2023-05-20T10:44:02.498Z,94409.91
2023-05-20T10:46:40.145Z,94407.81
2023-05-20T10:49:22.459Z,94409.16
2023-05-20T10:51:51.720Z,94405.09
2023-05-20T10:54:20.257Z,94415.47
2023-05-20T10:56:54.464Z,94403.03
2023-05-20T10:59:22.371Z,94398.66
2023-05-20T11:01:49.632Z,94405.47
2023-05-20T11:04:17.713Z,94392.38
2023-05-20T11:06:54.417Z,94397.06
2023-05-20T11:09:22.182Z,94398.06
2023-05-20T11:11:51.697Z,94395.00
2023-05-20T11:14:20.303Z,94400.25
2023-05-20T11:16:51.801Z,94385.06
2023-05-20T11:19:21.965Z,94379.50
2023-05-20T11:21:49.400Z,94386.47
2023-05-20T11:24:27.504Z,94382.72
2023-05-20T11:26:57.685Z,94383.44
2023-05-20T11:29:29.295Z,94391.53
2023-05-20T11:31:56.455Z,94382.75
2023-05-20T11:34:26.344Z,94372.34
2023-05-20T11:36:58.987Z,94357.69
2023-05-20T11:39:30.459Z,94351.53
2023-05-20T11:41:58.791Z,94337.75
2023-05-20T11:44:26.505Z,94349.84
2023-05-20T11:47:01.703Z,94347.91
2023-05-20T11:49:29.043Z,94348.50
2023-05-20T11:51:57.031Z,94341.75
2023-05-20T11:54:25.046Z,94347.47
2023-05-20T11:56:52.314Z,94344.19
2023-05-20T11:59:19.203Z,94336.13
2023-05-20T12:01:46.141Z,94340.19
2023-05-20T12:04:17.737Z,94330.28
2023-05-20T12:06:44.754Z,94337.50
2023-05-20T12:09:12.037Z,94345.50
2023-05-20T12:11:44.885Z,94343.97
2023-05-20T12:14:11.985Z,94350.75
2023-05-20T12:16:39.228Z,94351.72
2023-05-20T12:19:06.392Z,94350.03
2023-05-20T12:21:33.391Z,94344.56
2023-05-20T12:24:01.324Z,94341.38
2023-05-20T12:26:30.068Z,94336.59
2023-05-20T12:28:57.292Z,94329.88
2023-05-20T12:31:25.089Z,94335.22
2023-05-20T12:33:52.051Z,94341.22
2023-05-20T12:36:19.867Z,94343.66
2023-05-20T12:38:47.288Z,94344.31
2023-05-20T12:41:14.339Z,94338.72
2023-05-20T12:43:41.254Z,94333.91
2023-05-20T12:46:08.338Z,94329.72
2023-05-20T12:48:35.336Z,94340.84
2023-05-20T12:51:02.205Z,94335.66
2023-05-20T12:53:29.072Z,94330.53
2023-05-20T12:55:56.023Z,94327.13
2023-05-20T12:58:22.936Z,94319.59
2023-05-20T13:00:50.092Z,94332.63
2023-05-20T13:03:17.258Z,94328.41
2023-05-20T13:05:44.295Z,94326.00
2023-05-20T13:08:12.796Z,94324.28
2023-05-20T13:10:39.670Z,94316.22
2023-05-20T13:13:06.891Z,94312.78
2023-05-20T13:15:33.872Z,94313.03
2023-05-20T13:18:01.793Z,94318.53
2023-05-20T13:20:30.084Z,94314.03
2023-05-20T13:22:57.119Z,94308.69
2023-05-20T13:25:24.111Z,94309.31
2023-05-20T13:27:51.121Z,94321.50
2023-05-20T13:30:18.136Z,94310.44
2023-05-20T13:32:45.171Z,94304.97
2023-05-20T13:35:13.314Z,94308.53
2023-05-20T13:37:40.162Z,94308.94
2023-05-20T13:40:07.907Z,94303.00
2023-05-20T13:42:34.829Z,94286.97
2023-05-20T13:45:01.686Z,94294.72
2023-05-20T13:47:28.615Z,94285.56
2023-05-20T13:49:55.679Z,94279.09
2023-05-20T13:52:22.561Z,94281.69
2023-05-20T13:54:49.534Z,94285.06
2023-05-20T13:57:16.640Z,94279.38
2023-05-20T13:59:43.553Z,94273.16
2023-05-20T14:02:11.296Z,94272.41
2023-05-20T14:04:40.533Z,94278.06
2023-05-20T14:07:09.651Z,94271.16
2023-05-20T14:09:37.018Z,94268.22
2023-05-20T14:12:05.016Z,94261.56
2023-05-20T14:14:31.994Z,94261.06
2023-05-20T14:16:58.826Z,94264.53
2023-05-20T14:19:27.197Z,94259.13
2023-05-20T14:21:54.327Z,94262.13
2023-05-20T14:24:23.470Z,94266.34
2023-05-20T14:26:50.761Z,94266.63
2023-05-20T14:29:17.809Z,94248.50
2023-05-20T14:31:45.119Z,94252.09
2023-05-20T14:34:12.164Z,94249.38
2023-05-20T14:36:39.554Z,94250.03
2023-05-20T14:39:06.533Z,94254.72
2023-05-20T14:41:33.456Z,94236.91
2023-05-20T14:44:00.329Z,94253.19
2023-05-20T14:46:27.307Z,94255.47
2023-05-20T14:48:54.277Z,94250.72
2023-05-20T14:51:21.218Z,94261.69
2023-05-20T14:53:48.059Z,94265.69
2023-05-20T14:56:14.931Z,94263.63
2023-05-20T14:58:42.407Z,94268.16
2023-05-20T15:01:09.511Z,94267.69
2023-05-20T15:03:36.910Z,94259.00
2023-05-20T15:06:04.038Z,94257.47
2023-05-20T15:08:31.594Z,94257.75
2023-05-20T15:10:58.480Z,94260.56
2023-05-20T15:13:25.343Z,94267.69
2023-05-20T15:15:52.254Z,94258.44
2023-05-20T15:18:19.178Z,94247.34
2023-05-20T15:20:46.046Z,94253.81
2023-05-20T15:23:12.954Z,94248.03
2023-05-20T15:25:39.847Z,94245.16
2023-05-20T15:28:06.724Z,94245.53
2023-05-20T15:30:33.776Z,94254.16
2023-05-20T15:33:01.516Z,94258.47
2023-05-20T15:35:28.836Z,94259.00
2023-05-20T15:37:55.764Z,94252.56
2023-05-20T15:40:22.819Z,94258.47
2023-05-20T15:42:49.683Z,94255.25
2023-05-20T15:45:16.669Z,94256.06
2023-05-20T15:47:43.562Z,94253.63
2023-05-20T15:50:11.515Z,94261.94
2023-05-20T15:52:38.916Z,94250.38
2023-05-20T15:55:07.057Z,94253.34
2023-05-20T15:57:34.041Z,94246.63
2023-05-20T16:00:01.576Z,94246.31
2023-05-20T16:02:28.930Z,94241.63
2023-05-20T16:04:56.064Z,94248.59
2023-05-20T16:07:22.926Z,94254.50
2023-05-20T16:09:49.860Z,94251.56
2023-05-20T16:12:17.357Z,94243.50
2023-05-20T16:14:44.926Z,94248.09
2023-05-20T16:17:12.682Z,94249.56
2023-05-20T16:19:39.611Z,94251.00
2023-05-20T16:22:06.490Z,94243.31
2023-05-20T16:24:33.414Z,94257.88
2023-05-20T16:27:00.344Z,94248.66
2023-05-20T16:29:27.336Z,94252.53
2023-05-20T16:31:54.258Z,94250.53
2023-05-20T16:34:21.219Z,94251.66
2023-05-20T16:36:48.129Z,94248.44
2023-05-20T16:39:15.657Z,94250.72
2023-05-20T16:41:43.326Z,94255.03
2023-05-20T16:44:10.887Z,94256.25
2023-05-20T16:46:37.752Z,94250.22
2023-05-20T16:49:04.597Z,94263.41
2023-05-20T16:51:31.572Z,94253.84
2023-05-20T16:53:58.426Z,94259.28
2023-05-20T16:56:25.306Z,94254.47
2023-05-20T16:58:53.250Z,94246.91
2023-05-20T17:01:21.786Z,94246.34
2023-05-20T17:03:49.134Z,94247.75
2023-05-20T17:06:16.127Z,94243.16
2023-05-20T17:08:42.973Z,94254.19
2023-05-20T17:11:09.905Z,94247.31
2023-05-20T17:13:36.783Z,94236.13
2023-05-20T17:16:03.785Z,94246.34
2023-05-20T17:18:30.842Z,94244.22
2023-05-20T17:20:57.761Z,94252.66
2023-05-20T17:23:24.675Z,94251.53
2023-05-20T17:25:52.052Z,94251.25
2023-05-20T17:28:18.881Z,94255.44
2023-05-20T17:30:45.814Z,94257.44
2023-05-20T17:33:12.826Z,94257.50
2023-05-20T17:35:40.150Z,94248.50
2023-05-20T17:38:07.091Z,94253.81
2023-05-20T17:40:34.157Z,94263.44
2023-05-20T17:43:01.163Z,94266.44
2023-05-20T17:45:28.030Z,94268.41
2023-05-20T17:47:55.020Z,94264.84
2023-05-20T17:50:22.068Z,94256.94
2023-05-20T17:52:49.237Z,94261.72
2023-05-20T17:55:18.495Z,94260.38
2023-05-20T17:57:45.413Z,94267.47
2023-05-20T18:00:13.277Z,94265.78
2023-05-20T18:02:40.246Z,94267.41
2023-05-20T18:05:07.846Z,94266.78
2023-05-20T18:07:37.563Z,94268.81
2023-05-20T18:10:05.192Z,94265.06
2023-05-20T18:12:32.055Z,94262.09
2023-05-20T18:14:58.999Z,94266.47
2023-05-20T18:17:25.937Z,94264.72
2023-05-20T18:19:52.834Z,94265.75
2023-05-20T18:22:19.720Z,94269.72
2023-05-20T18:24:46.678Z,94273.94
2023-05-20T18:27:13.577Z,94271.69
2023-05-20T18:29:40.443Z,94269.72
2023-05-20T18:32:08.260Z,94272.25
2023-05-20T18:34:35.120Z,94273.22
2023-05-20T18:37:02.025Z,94269.81
2023-05-20T18:39:28.890Z,94268.81
2023-05-20T18:41:55.773Z,94273.41
2023-05-20T18:44:22.686Z,94259.66
2023-05-20T18:46:49.667Z,94267.72
2023-05-20T18:49:16.547Z,94268.56
2023-05-20T18:51:43.399Z,94272.13
2023-05-20T18:54:10.266Z,94269.78
2023-05-20T18:56:37.313Z,94270.53
2023-05-20T18:59:04.195Z,94279.13
2023-05-20T19:01:31.492Z,94277.88
2023-05-20T19:03:58.388Z,94281.69
2023-05-20T19:06:25.955Z,94279.03
2023-05-20T19:08:52.884Z,94290.63
2023-05-20T19:11:19.772Z,94289.56
2023-05-20T19:13:46.633Z,94289.69
2023-05-20T19:16:13.663Z,94298.38
2023-05-20T19:18:40.667Z,94296.69
2023-05-20T19:21:07.647Z,94301.28
2023-05-20T19:23:34.623Z,94296.13
2023-05-20T19:26:01.525Z,94310.13
2023-05-20T19:28:28.464Z,94303.63
2023-05-20T19:30:55.342Z,94306.28
2023-05-20T19:33:22.393Z,94313.31
2023-05-20T19:35:49.367Z,94306.34
2023-05-20T19:38:16.552Z,94306.97
2023-05-20T19:40:44.700Z,94307.38
2023-05-20T19:43:11.672Z,94307.91
2023-05-20T19:45:38.916Z,94307.38
2023-05-20T19:48:06.719Z,94318.22
2023-05-20T19:50:34.470Z,94319.53
2023-05-20T19:53:03.475Z,94311.94
2023-05-20T19:55:30.434Z,94321.00
2023-05-20T19:57:57.379Z,94305.78
2023-05-20T20:00:24.440Z,94317.28
2023-05-20T20:02:51.450Z,94311.56
2023-05-20T20:05:19.002Z,94308.81
2023-05-20T20:07:48.142Z,94300.91
2023-05-20T20:10:15.032Z,94307.47
2023-05-20T20:12:41.935Z,94309.97
2023-05-20T20:15:09.951Z,94305.59
2023-05-20T20:17:37.368Z,94299.69
2023-05-20T20:20:10.364Z,94301.72
2023-05-20T20:22:37.194Z,94300.75
2023-05-20T20:25:04.180Z,94302.38
2023-05-20T20:27:33.207Z,94298.28
2023-05-20T20:30:00.601Z,94306.66
2023-05-20T20:32:28.163Z,94295.03
2023-05-20T20:34:55.098Z,94302.00
2023-05-20T20:37:23.173Z,94296.69
2023-05-20T20:39:50.250Z,94304.25
2023-05-20T20:42:17.131Z,94306.06
2023-05-20T20:44:48.547Z,94308.50
2023-05-20T20:47:16.259Z,94307.31
2023-05-20T20:49:43.171Z,94296.34
2023-05-20T20:52:10.512Z,94307.84
2023-05-20T20:54:40.190Z,94305.91
2023-05-20T20:57:09.001Z,94290.94
2023-05-20T20:59:35.867Z,94292.97
2023-05-20T21:02:03.396Z,94287.28
2023-05-20T21:04:30.337Z,94290.38
2023-05-20T21:06:59.545Z,94284.47
2023-05-20T21:09:28.093Z,94291.84
2023-05-20T21:11:57.367Z,94295.13
2023-05-20T21:14:25.427Z,94285.56
2023-05-20T21:16:52.510Z,94284.94
2023-05-20T21:19:19.578Z,94272.09
2023-05-20T21:21:46.547Z,94280.50
2023-05-20T21:24:13.437Z,94280.28
2023-05-20T21:26:40.325Z,94274.63
2023-05-20T21:29:07.640Z,94270.53
2023-05-20T21:31:34.663Z,94258.13
2023-05-20T21:34:01.562Z,94253.25
2023-05-20T21:36:28.458Z,94270.38
2023-05-20T21:38:55.714Z,94260.16
2023-05-20T21:41:23.590Z,94264.63
2023-05-20T21:43:50.671Z,94260.78
2023-05-20T21:46:17.540Z,94258.09
2023-05-20T21:48:44.625Z,94259.72
2023-05-20T21:51:11.576Z,94260.94
2023-05-20T21:53:38.428Z,94255.25
2023-05-20T21:56:05.422Z,94259.94
2023-05-20T21:58:32.351Z,94263.81
2023-05-20T22:00:59.231Z,94255.84
2023-05-20T22:03:26.223Z,94248.13
2023-05-20T22:05:53.150Z,94248.56
2023-05-20T22:08:20.040Z,94248.78
2023-05-20T22:10:47.232Z,94250.44
2023-05-20T22:13:14.249Z,94246.56
2023-05-20T22:15:41.148Z,94242.28
2023-05-20T22:18:08.113Z,94240.69
2023-05-20T22:20:35.111Z,94242.25
2023-05-20T22:23:01.952Z,94235.75
2023-05-20T22:25:28.816Z,94234.53
2023-05-20T22:27:55.936Z,94231.28
2023-05-20T22:30:22.972Z,94233.50
2023-05-20T22:32:49.979Z,94229.84
2023-05-20T22:35:17.033Z,94229.63
2023-05-20T22:37:43.879Z,94236.16
2023-05-20T22:40:11.037Z,94224.72
2023-05-20T22:42:37.903Z,94220.25
2023-05-20T22:45:05.980Z,94221.88
2023-05-20T22:47:32.893Z,94230.81
2023-05-20T22:50:02.734Z,94222.88
2023-05-20T22:52:30.132Z,94227.19
2023-05-20T22:54:57.759Z,94220.25
2023-05-20T22:57:25.976Z,94214.72
2023-05-20T22:59:54.050Z,94215.75
2023-05-20T23:02:21.770Z,94219.03
2023-05-20T23:04:48.746Z,94220.03
2023-05-20T23:07:19.205Z,94214.97
2023-05-20T23:09:49.224Z,94210.09
2023-05-20T23:12:16.501Z,94212.72
2023-05-20T23:14:43.385Z,94210.84
2023-05-20T23:17:10.328Z,94213.31
2023-05-20T23:19:37.293Z,94203.53
2023-05-20T23:22:04.492Z,94206.97
2023-05-20T23:24:31.332Z,94203.91
2023-05-20T23:26:59.491Z,94204.53
2023-05-20T23:29:27.132Z,94208.81
2023-05-20T23:31:54.011Z,94200.28
2023-05-20T23:34:21.612Z,94204.34
2023-05-20T23:36:48.521Z,94199.81
2023-05-20T23:39:17.452Z,94201.41
2023-05-20T23:41:45.331Z,94199.38
2023-05-20T23:44:12.184Z,94215.66
2023-05-20T23:46:39.119Z,94215.25
2023-05-20T23:49:06.901Z,94215.22
2023-05-20T23:51:35.683Z,94213.13
2023-05-20T23:54:02.602Z,94215.34
2023-05-20T23:56:29.504Z,94207.72
2023-05-20T23:58:57.913Z,94204.66
